Saint-Sauveur, Canada
Current Conditions -  °F | °C
As of 3:00 AM on Wednesday 22 Oct 2014 (Local Time) from CYMX Reporting Station
Overcast Overcast  
Wind Chill: 39°   Ceiling: 7500
Heat Index: 45°   Visibility: 25mi
Dew Point: 32°   Wind: 12mph
Humidity: 61%   Direction: 50°NE
Pressure: 30.2"   Gusts: 18mph
Location:  45.89°N, 74.18°W
Report Text: CYMX 220700Z 05010G16KT 010V080 25SM SCT036 OVC075 07/M00 A3020 RMK SC3AC5 SLP229
Loading
Personal Weather Stations






























Interactive Weather Map
Tropical Storm Tracking
New forecast layout! Learn more

10-Day Weather Forecast

Advertisements
Track Severe Weather on mobile